sensor_id;sensor_type;location;lat;lon;timestamp;temperature;humidity
41924;DHT22;27613;48.116;11.656;2022-12-08T00:01:36;1.10;99.90
41924;DHT22;27613;48.116;11.656;2022-12-08T00:04:03;1.10;99.90
41924;DHT22;27613;48.116;11.656;2022-12-08T00:06:41;1.10;99.90
41924;DHT22;27613;48.116;11.656;2022-12-08T00:09:38;1.10;99.90
41924;DHT22;27613;48.116;11.656;2022-12-08T00:12:12;1.10;99.90
41924;DHT22;27613;48.116;11.656;2022-12-08T00:14:41;1.10;99.90
41924;DHT22;27613;48.116;11.656;2022-12-08T00:17:08;1.10;99.90
41924;DHT22;27613;48.116;11.656;2022-12-08T00:19:35;1.10;99.90
41924;DHT22;27613;48.116;11.656;2022-12-08T00:22:01;1.00;99.90
41924;DHT22;27613;48.116;11.656;2022-12-08T00:24:35;1.10;99.90
41924;DHT22;27613;48.116;11.656;2022-12-08T00:27:02;1.10;99.90
41924;DHT22;27613;48.116;11.656;2022-12-08T00:29:28;1.10;99.90
41924;DHT22;27613;48.116;11.656;2022-12-08T00:31:54;1.10;99.90
41924;DHT22;27613;48.116;11.656;2022-12-08T00:34:19;1.10;99.90
41924;DHT22;27613;48.116;11.656;2022-12-08T00:36:45;1.10;99.90
41924;DHT22;27613;48.116;11.656;2022-12-08T00:39:12;1.10;99.90
41924;DHT22;27613;48.116;11.656;2022-12-08T00:41:38;1.10;99.90
41924;DHT22;27613;48.116;11.656;2022-12-08T00:44:22;1.10;99.90
41924;DHT22;27613;48.116;11.656;2022-12-08T00:46:48;1.10;99.90
41924;DHT22;27613;48.116;11.656;2022-12-08T00:49:14;1.10;99.90
41924;DHT22;27613;48.116;11.656;2022-12-08T00:51:41;1.10;99.90
41924;DHT22;27613;48.116;11.656;2022-12-08T00:54:07;1.00;99.90
41924;DHT22;27613;48.116;11.656;2022-12-08T00:56:33;1.00;99.90
41924;DHT22;27613;48.116;11.656;2022-12-08T00:58:59;1.10;99.90
41924;DHT22;27613;48.116;11.656;2022-12-08T01:01:26;1.00;99.90
41924;DHT22;27613;48.116;11.656;2022-12-08T01:03:51;1.00;99.90
41924;DHT22;27613;48.116;11.656;2022-12-08T01:06:17;1.00;99.90
41924;DHT22;27613;48.116;11.656;2022-12-08T01:08:43;1.00;99.90
41924;DHT22;27613;48.116;11.656;2022-12-08T01:11:11;1.00;99.90
41924;DHT22;27613;48.116;11.656;2022-12-08T01:13:37;1.00;99.90
41924;DHT22;27613;48.116;11.656;2022-12-08T01:16:04;1.00;99.90
41924;DHT22;27613;48.116;11.656;2022-12-08T01:18:30;1.00;99.90
41924;DHT22;27613;48.116;11.656;2022-12-08T01:21:04;1.00;99.90
41924;DHT22;27613;48.116;11.656;2022-12-08T01:23:30;1.00;99.90
41924;DHT22;27613;48.116;11.656;2022-12-08T01:26:01;1.00;99.90
41924;DHT22;27613;48.116;11.656;2022-12-08T01:28:28;0.90;99.90
41924;DHT22;27613;48.116;11.656;2022-12-08T01:30:53;1.00;99.90
41924;DHT22;27613;48.116;11.656;2022-12-08T01:33:19;0.90;99.90
41924;DHT22;27613;48.116;11.656;2022-12-08T01:35:45;1.00;99.90
41924;DHT22;27613;48.116;11.656;2022-12-08T01:38:10;0.90;99.90
41924;DHT22;27613;48.116;11.656;2022-12-08T01:40:36;1.00;99.90
41924;DHT22;27613;48.116;11.656;2022-12-08T01:43:01;1.00;99.90
41924;DHT22;27613;48.116;11.656;2022-12-08T01:45:29;1.00;99.90
41924;DHT22;27613;48.116;11.656;2022-12-08T01:48:03;1.00;99.90
41924;DHT22;27613;48.116;11.656;2022-12-08T01:50:30;0.90;99.90
41924;DHT22;27613;48.116;11.656;2022-12-08T01:53:00;0.90;99.90
41924;DHT22;27613;48.116;11.656;2022-12-08T01:55:40;0.90;99.90
41924;DHT22;27613;48.116;11.656;2022-12-08T01:58:18;0.80;99.90
41924;DHT22;27613;48.116;11.656;2022-12-08T02:00:45;0.80;99.90
41924;DHT22;27613;48.116;11.656;2022-12-08T02:03:15;0.80;99.90
41924;DHT22;27613;48.116;11.656;2022-12-08T02:05:45;0.90;99.90
41924;DHT22;27613;48.116;11.656;2022-12-08T02:08:12;0.80;99.90
41924;DHT22;27613;48.116;11.656;2022-12-08T02:10:39;0.80;99.90
41924;DHT22;27613;48.116;11.656;2022-12-08T02:13:08;0.80;99.90
41924;DHT22;27613;48.116;11.656;2022-12-08T02:16:09;0.80;99.90
41924;DHT22;27613;48.116;11.656;2022-12-08T02:18:58;0.70;99.90
41924;DHT22;27613;48.116;11.656;2022-12-08T02:21:34;0.80;99.90
41924;DHT22;27613;48.116;11.656;2022-12-08T02:26:47;0.70;99.90
41924;DHT22;27613;48.116;11.656;2022-12-08T02:40:11;0.60;99.90
41924;DHT22;27613;48.116;11.656;2022-12-08T02:42:43;0.60;99.90
41924;DHT22;27613;48.116;11.656;2022-12-08T02:45:48;0.60;99.90
41924;DHT22;27613;48.116;11.656;2022-12-08T02:48:14;0.60;99.90
41924;DHT22;27613;48.116;11.656;2022-12-08T02:50:40;0.60;99.90
41924;DHT22;27613;48.116;11.656;2022-12-08T02:53:05;0.70;99.90
41924;DHT22;27613;48.116;11.656;2022-12-08T02:55:47;0.70;99.90
41924;DHT22;27613;48.116;11.656;2022-12-08T03:03:33;0.50;99.90
41924;DHT22;27613;48.116;11.656;2022-12-08T03:06:18;0.60;99.90
41924;DHT22;27613;48.116;11.656;2022-12-08T03:11:51;0.60;99.90
41924;DHT22;27613;48.116;11.656;2022-12-08T03:14:19;0.60;99.90
41924;DHT22;27613;48.116;11.656;2022-12-08T03:16:48;0.50;99.90
41924;DHT22;27613;48.116;11.656;2022-12-08T03:19:23;0.60;99.90
41924;DHT22;27613;48.116;11.656;2022-12-08T03:21:52;0.60;99.90
41924;DHT22;27613;48.116;11.656;2022-12-08T03:24:24;0.60;99.90
41924;DHT22;27613;48.116;11.656;2022-12-08T03:26:58;0.60;99.90
41924;DHT22;27613;48.116;11.656;2022-12-08T03:29:25;0.60;99.90
41924;DHT22;27613;48.116;11.656;2022-12-08T03:31:57;0.60;99.90
41924;DHT22;27613;48.116;11.656;2022-12-08T03:34:25;0.60;99.90
41924;DHT22;27613;48.116;11.656;2022-12-08T03:36:52;0.50;99.90
41924;DHT22;27613;48.116;11.656;2022-12-08T03:39:18;0.50;99.90
41924;DHT22;27613;48.116;11.656;2022-12-08T03:41:44;0.50;99.90
41924;DHT22;27613;48.116;11.656;2022-12-08T03:44:10;0.50;99.90
41924;DHT22;27613;48.116;11.656;2022-12-08T03:46:36;0.50;99.90
41924;DHT22;27613;48.116;11.656;2022-12-08T03:49:01;0.50;99.90
41924;DHT22;27613;48.116;11.656;2022-12-08T03:51:27;0.40;99.90
41924;DHT22;27613;48.116;11.656;2022-12-08T03:53:52;0.40;99.90
41924;DHT22;27613;48.116;11.656;2022-12-08T03:56:28;0.40;99.90
41924;DHT22;27613;48.116;11.656;2022-12-08T03:58:55;0.40;99.90
41924;DHT22;27613;48.116;11.656;2022-12-08T04:01:21;0.40;99.90
41924;DHT22;27613;48.116;11.656;2022-12-08T04:03:47;0.40;99.90
41924;DHT22;27613;48.116;11.656;2022-12-08T04:06:13;0.40;99.90
41924;DHT22;27613;48.116;11.656;2022-12-08T04:08:38;0.40;99.90
41924;DHT22;27613;48.116;11.656;2022-12-08T04:11:04;0.40;99.90
41924;DHT22;27613;48.116;11.656;2022-12-08T04:13:31;0.40;99.90
41924;DHT22;27613;48.116;11.656;2022-12-08T04:15:57;0.30;99.90
41924;DHT22;27613;48.116;11.656;2022-12-08T04:18:23;0.30;99.90
41924;DHT22;27613;48.116;11.656;2022-12-08T04:20:48;0.30;99.90
41924;DHT22;27613;48.116;11.656;2022-12-08T04:23:14;0.30;99.90
41924;DHT22;27613;48.116;11.656;2022-12-08T04:25:39;0.30;99.90
41924;DHT22;27613;48.116;11.656;2022-12-08T04:28:05;0.30;99.90
41924;DHT22;27613;48.116;11.656;2022-12-08T04:30:31;0.30;99.90
41924;DHT22;27613;48.116;11.656;2022-12-08T04:32:57;0.20;99.90
41924;DHT22;27613;48.116;11.656;2022-12-08T04:35:23;0.20;99.90
41924;DHT22;27613;48.116;11.656;2022-12-08T04:37:48;0.20;99.90
41924;DHT22;27613;48.116;11.656;2022-12-08T04:40:14;0.20;99.90
41924;DHT22;27613;48.116;11.656;2022-12-08T04:42:41;0.20;99.90
41924;DHT22;27613;48.116;11.656;2022-12-08T04:45:07;0.20;99.90
41924;DHT22;27613;48.116;11.656;2022-12-08T04:47:33;0.20;99.90
41924;DHT22;27613;48.116;11.656;2022-12-08T04:49:58;0.20;99.90
41924;DHT22;27613;48.116;11.656;2022-12-08T04:52:24;0.20;99.90
41924;DHT22;27613;48.116;11.656;2022-12-08T04:54:50;0.10;99.90
41924;DHT22;27613;48.116;11.656;2022-12-08T04:57:16;0.10;99.90
41924;DHT22;27613;48.116;11.656;2022-12-08T04:59:41;0.10;99.90
41924;DHT22;27613;48.116;11.656;2022-12-08T05:02:07;0.10;99.90
41924;DHT22;27613;48.116;11.656;2022-12-08T05:04:33;0.10;99.90
41924;DHT22;27613;48.116;11.656;2022-12-08T05:06:58;0.00;99.90
41924;DHT22;27613;48.116;11.656;2022-12-08T05:09:24;0.10;99.90
41924;DHT22;27613;48.116;11.656;2022-12-08T05:11:49;0.10;99.90
41924;DHT22;27613;48.116;11.656;2022-12-08T05:14:17;0.10;99.90
41924;DHT22;27613;48.116;11.656;2022-12-08T05:16:44;0.10;99.90
41924;DHT22;27613;48.116;11.656;2022-12-08T05:19:10;0.10;99.90
41924;DHT22;27613;48.116;11.656;2022-12-08T05:21:35;0.10;99.90
41924;DHT22;27613;48.116;11.656;2022-12-08T05:24:01;0.10;99.90
41924;DHT22;27613;48.116;11.656;2022-12-08T05:26:26;0.10;99.90
41924;DHT22;27613;48.116;11.656;2022-12-08T05:28:52;0.20;99.90
41924;DHT22;27613;48.116;11.656;2022-12-08T05:31:18;0.20;99.90
41924;DHT22;27613;48.116;11.656;2022-12-08T05:33:44;0.10;99.90
41924;DHT22;27613;48.116;11.656;2022-12-08T05:36:12;0.10;99.90
41924;DHT22;27613;48.116;11.656;2022-12-08T05:38:38;0.10;99.90
41924;DHT22;27613;48.116;11.656;2022-12-08T05:41:08;0.10;99.90
41924;DHT22;27613;48.116;11.656;2022-12-08T05:43:34;0.10;99.90
41924;DHT22;27613;48.116;11.656;2022-12-08T05:46:00;0.10;99.90
41924;DHT22;27613;48.116;11.656;2022-12-08T05:48:26;0.10;99.90
41924;DHT22;27613;48.116;11.656;2022-12-08T05:50:51;0.20;99.90
41924;DHT22;27613;48.116;11.656;2022-12-08T05:53:18;0.10;99.90
41924;DHT22;27613;48.116;11.656;2022-12-08T05:55:45;0.10;99.90
41924;DHT22;27613;48.116;11.656;2022-12-08T05:58:19;0.10;99.90
41924;DHT22;27613;48.116;11.656;2022-12-08T06:00:46;0.10;99.90
41924;DHT22;27613;48.116;11.656;2022-12-08T06:03:12;0.20;99.90
41924;DHT22;27613;48.116;11.656;2022-12-08T06:05:40;0.10;99.90
41924;DHT22;27613;48.116;11.656;2022-12-08T06:08:07;0.20;99.90
41924;DHT22;27613;48.116;11.656;2022-12-08T06:10:32;0.20;99.90
41924;DHT22;27613;48.116;11.656;2022-12-08T06:12:58;0.20;99.90
41924;DHT22;27613;48.116;11.656;2022-12-08T06:15:24;0.20;99.90
41924;DHT22;27613;48.116;11.656;2022-12-08T06:17:50;0.10;99.90
41924;DHT22;27613;48.116;11.656;2022-12-08T06:20:15;0.10;99.90
41924;DHT22;27613;48.116;11.656;2022-12-08T06:22:41;0.10;99.90
41924;DHT22;27613;48.116;11.656;2022-12-08T06:25:07;0.10;99.90
41924;DHT22;27613;48.116;11.656;2022-12-08T06:27:33;0.10;99.90
41924;DHT22;27613;48.116;11.656;2022-12-08T06:29:58;0.10;99.90
41924;DHT22;27613;48.116;11.656;2022-12-08T06:32:24;0.10;99.90
41924;DHT22;27613;48.116;11.656;2022-12-08T06:34:51;0.10;99.90
41924;DHT22;27613;48.116;11.656;2022-12-08T06:37:16;0.10;99.90
41924;DHT22;27613;48.116;11.656;2022-12-08T06:39:42;0.10;99.90
41924;DHT22;27613;48.116;11.656;2022-12-08T06:42:08;0.10;99.90
41924;DHT22;27613;48.116;11.656;2022-12-08T06:44:52;0.10;99.90
41924;DHT22;27613;48.116;11.656;2022-12-08T06:47:20;0.10;99.90
41924;DHT22;27613;48.116;11.656;2022-12-08T06:49:45;0.10;99.90
41924;DHT22;27613;48.116;11.656;2022-12-08T06:52:11;0.10;99.90
41924;DHT22;27613;48.116;11.656;2022-12-08T06:54:36;0.10;99.90
41924;DHT22;27613;48.116;11.656;2022-12-08T06:57:02;0.10;99.90
41924;DHT22;27613;48.116;11.656;2022-12-08T06:59:29;0.10;99.90
41924;DHT22;27613;48.116;11.656;2022-12-08T07:01:54;0.10;99.90
41924;DHT22;27613;48.116;11.656;2022-12-08T07:04:20;0.10;99.90
41924;DHT22;27613;48.116;11.656;2022-12-08T07:06:45;0.10;99.90
41924;DHT22;27613;48.116;11.656;2022-12-08T07:09:11;0.10;99.90
41924;DHT22;27613;48.116;11.656;2022-12-08T07:11:38;0.20;99.90
41924;DHT22;27613;48.116;11.656;2022-12-08T07:14:03;0.20;99.90
41924;DHT22;27613;48.116;11.656;2022-12-08T07:16:29;0.30;99.90
41924;DHT22;27613;48.116;11.656;2022-12-08T07:18:54;0.30;99.90
41924;DHT22;27613;48.116;11.656;2022-12-08T07:21:20;0.40;99.90
41924;DHT22;27613;48.116;11.656;2022-12-08T07:23:47;0.50;99.90
41924;DHT22;27613;48.116;11.656;2022-12-08T07:26:12;0.60;99.90
41924;DHT22;27613;48.116;11.656;2022-12-08T07:28:39;0.80;99.90
41924;DHT22;27613;48.116;11.656;2022-12-08T07:31:06;0.80;99.90
41924;DHT22;27613;48.116;11.656;2022-12-08T07:33:32;0.80;99.90
41924;DHT22;27613;48.116;11.656;2022-12-08T07:36:00;1.00;99.90
41924;DHT22;27613;48.116;11.656;2022-12-08T07:38:27;1.20;99.90
41924;DHT22;27613;48.116;11.656;2022-12-08T07:40:53;1.40;99.90
41924;DHT22;27613;48.116;11.656;2022-12-08T07:43:20;1.50;99.90
41924;DHT22;27613;48.116;11.656;2022-12-08T07:45:46;1.80;99.90
41924;DHT22;27613;48.116;11.656;2022-12-08T07:48:12;3.00;99.90
41924;DHT22;27613;48.116;11.656;2022-12-08T07:50:38;4.70;99.90
41924;DHT22;27613;48.116;11.656;2022-12-08T07:53:04;6.00;99.90
41924;DHT22;27613;48.116;11.656;2022-12-08T07:55:30;7.70;95.60
41924;DHT22;27613;48.116;11.656;2022-12-08T07:57:55;9.00;92.20
41924;DHT22;27613;48.116;11.656;2022-12-08T08:00:21;10.20;84.60
41924;DHT22;27613;48.116;11.656;2022-12-08T08:02:47;11.40;77.90
41924;DHT22;27613;48.116;11.656;2022-12-08T08:05:12;12.40;74.70
41924;DHT22;27613;48.116;11.656;2022-12-08T08:07:39;12.40;70.70
41924;DHT22;27613;48.116;11.656;2022-12-08T08:10:07;12.30;71.10
41924;DHT22;27613;48.116;11.656;2022-12-08T08:12:33;11.10;72.90
41924;DHT22;27613;48.116;11.656;2022-12-08T08:14:59;10.00;76.70
41924;DHT22;27613;48.116;11.656;2022-12-08T08:17:25;9.90;78.20
41924;DHT22;27613;48.116;11.656;2022-12-08T08:19:50;11.10;76.00
41924;DHT22;27613;48.116;11.656;2022-12-08T08:22:16;11.80;72.50
41924;DHT22;27613;48.116;11.656;2022-12-08T08:24:42;12.20;71.30
41924;DHT22;27613;48.116;11.656;2022-12-08T08:27:07;10.70;71.30
41924;DHT22;27613;48.116;11.656;2022-12-08T08:29:33;11.10;74.10
41924;DHT22;27613;48.116;11.656;2022-12-08T08:31:58;11.10;72.20
41924;DHT22;27613;48.116;11.656;2022-12-08T08:34:24;11.40;72.00
41924;DHT22;27613;48.116;11.656;2022-12-08T08:36:49;10.90;72.20
41924;DHT22;27613;48.116;11.656;2022-12-08T08:39:15;11.20;71.60
41924;DHT22;27613;48.116;11.656;2022-12-08T08:41:41;12.20;70.60
41924;DHT22;27613;48.116;11.656;2022-12-08T08:44:06;13.10;67.40
41924;DHT22;27613;48.116;11.656;2022-12-08T08:46:32;11.60;68.70
41924;DHT22;27613;48.116;11.656;2022-12-08T08:48:57;10.70;72.60
41924;DHT22;27613;48.116;11.656;2022-12-08T08:51:23;11.30;72.30
41924;DHT22;27613;48.116;11.656;2022-12-08T08:53:49;12.30;67.80
41924;DHT22;27613;48.116;11.656;2022-12-08T08:56:16;12.10;67.10
41924;DHT22;27613;48.116;11.656;2022-12-08T08:58:45;10.30;70.50
41924;DHT22;27613;48.116;11.656;2022-12-08T09:01:19;9.10;75.00
41924;DHT22;27613;48.116;11.656;2022-12-08T09:03:45;8.40;77.90
41924;DHT22;27613;48.116;11.656;2022-12-08T09:06:12;7.90;79.70
41924;DHT22;27613;48.116;11.656;2022-12-08T09:08:38;10.10;75.30
41924;DHT22;27613;48.116;11.656;2022-12-08T09:11:03;10.90;72.40
41924;DHT22;27613;48.116;11.656;2022-12-08T09:13:29;10.10;73.20
41924;DHT22;27613;48.116;11.656;2022-12-08T09:15:54;8.70;78.30
41924;DHT22;27613;48.116;11.656;2022-12-08T09:18:20;8.00;80.80
41924;DHT22;27613;48.116;11.656;2022-12-08T09:20:46;8.60;80.10
41924;DHT22;27613;48.116;11.656;2022-12-08T09:23:11;10.60;74.00
41924;DHT22;27613;48.116;11.656;2022-12-08T09:25:37;10.50;72.50
41924;DHT22;27613;48.116;11.656;2022-12-08T09:28:03;9.50;73.60
41924;DHT22;27613;48.116;11.656;2022-12-08T09:30:28;9.10;75.90
41924;DHT22;27613;48.116;11.656;2022-12-08T09:32:54;9.40;77.00
41924;DHT22;27613;48.116;11.656;2022-12-08T09:35:19;11.70;71.00
41924;DHT22;27613;48.116;11.656;2022-12-08T09:37:45;13.80;64.70
41924;DHT22;27613;48.116;11.656;2022-12-08T09:40:15;14.00;61.40
41924;DHT22;27613;48.116;11.656;2022-12-08T09:45:49;12.20;66.20
41924;DHT22;27613;48.116;11.656;2022-12-08T09:48:28;14.90;60.50
41924;DHT22;27613;48.116;11.656;2022-12-08T09:50:57;14.30;59.50
41924;DHT22;27613;48.116;11.656;2022-12-08T09:56:26;10.50;68.10
41924;DHT22;27613;48.116;11.656;2022-12-08T09:59:05;9.10;73.00
41924;DHT22;27613;48.116;11.656;2022-12-08T10:01:36;8.30;76.70
41924;DHT22;27613;48.116;11.656;2022-12-08T10:04:25;7.10;82.10
41924;DHT22;27613;48.116;11.656;2022-12-08T10:17:48;6.40;84.50
41924;DHT22;27613;48.116;11.656;2022-12-08T10:20:18;6.40;84.70
41924;DHT22;27613;48.116;11.656;2022-12-08T10:22:46;6.10;84.20
41924;DHT22;27613;48.116;11.656;2022-12-08T10:25:23;6.00;85.80
41924;DHT22;27613;48.116;11.656;2022-12-08T10:27:53;5.60;90.10
41924;DHT22;27613;48.116;11.656;2022-12-08T10:30:20;5.50;91.10
41924;DHT22;27613;48.116;11.656;2022-12-08T10:32:51;6.40;90.50
41924;DHT22;27613;48.116;11.656;2022-12-08T10:35:21;6.00;90.90
41924;DHT22;27613;48.116;11.656;2022-12-08T10:37:58;5.80;91.00
41924;DHT22;27613;48.116;11.656;2022-12-08T10:40:27;5.20;92.00
41924;DHT22;27613;48.116;11.656;2022-12-08T10:42:58;5.10;92.60
41924;DHT22;27613;48.116;11.656;2022-12-08T10:45:36;5.00;93.70
41924;DHT22;27613;48.116;11.656;2022-12-08T10:50:43;4.90;94.20
41924;DHT22;27613;48.116;11.656;2022-12-08T10:53:29;4.90;94.50
41924;DHT22;27613;48.116;11.656;2022-12-08T11:00:55;4.80;94.90
41924;DHT22;27613;48.116;11.656;2022-12-08T11:03:33;5.10;94.50
41924;DHT22;27613;48.116;11.656;2022-12-08T11:06:00;5.20;94.30
41924;DHT22;27613;48.116;11.656;2022-12-08T11:08:27;4.90;94.10
41924;DHT22;27613;48.116;11.656;2022-12-08T11:10:53;4.90;94.70
41924;DHT22;27613;48.116;11.656;2022-12-08T11:13:25;4.80;94.50
41924;DHT22;27613;48.116;11.656;2022-12-08T11:15:55;4.80;94.60
41924;DHT22;27613;48.116;11.656;2022-12-08T11:18:39;4.90;95.00
41924;DHT22;27613;48.116;11.656;2022-12-08T11:21:09;4.90;95.10
41924;DHT22;27613;48.116;11.656;2022-12-08T11:23:36;5.00;94.40
41924;DHT22;27613;48.116;11.656;2022-12-08T11:26:05;5.20;94.10
41924;DHT22;27613;48.116;11.656;2022-12-08T11:28:31;5.10;94.10
41924;DHT22;27613;48.116;11.656;2022-12-08T11:31:08;5.10;94.00
41924;DHT22;27613;48.116;11.656;2022-12-08T11:33:37;4.80;94.40
41924;DHT22;27613;48.116;11.656;2022-12-08T11:36:06;4.80;94.10
41924;DHT22;27613;48.116;11.656;2022-12-08T11:38:38;4.70;95.00
41924;DHT22;27613;48.116;11.656;2022-12-08T11:41:08;4.80;95.40
41924;DHT22;27613;48.116;11.656;2022-12-08T11:46:41;4.80;95.80
41924;DHT22;27613;48.116;11.656;2022-12-08T11:49:11;4.90;95.90
41924;DHT22;27613;48.116;11.656;2022-12-08T11:51:50;4.90;95.80
41924;DHT22;27613;48.116;11.656;2022-12-08T11:57:00;5.20;94.80
41924;DHT22;27613;48.116;11.656;2022-12-08T11:59:41;5.30;94.40
41924;DHT22;27613;48.116;11.656;2022-12-08T12:02:17;5.20;93.70
41924;DHT22;27613;48.116;11.656;2022-12-08T12:10:32;4.90;95.40
41924;DHT22;27613;48.116;11.656;2022-12-08T12:13:24;4.80;95.10
41924;DHT22;27613;48.116;11.656;2022-12-08T12:18:58;5.00;94.70
41924;DHT22;27613;48.116;11.656;2022-12-08T12:21:40;4.90;95.00
41924;DHT22;27613;48.116;11.656;2022-12-08T12:24:20;4.80;95.30
41924;DHT22;27613;48.116;11.656;2022-12-08T12:27:07;5.00;94.70
41924;DHT22;27613;48.116;11.656;2022-12-08T12:29:48;5.10;95.00
41924;DHT22;27613;48.116;11.656;2022-12-08T12:32:14;5.00;95.60
41924;DHT22;27613;48.116;11.656;2022-12-08T12:34:49;5.00;95.80
41924;DHT22;27613;48.116;11.656;2022-12-08T12:37:19;5.10;95.60
41924;DHT22;27613;48.116;11.656;2022-12-08T12:42:38;5.10;95.40
41924;DHT22;27613;48.116;11.656;2022-12-08T12:45:22;5.10;95.90
41924;DHT22;27613;48.116;11.656;2022-12-08T12:50:42;5.00;95.50
41924;DHT22;27613;48.116;11.656;2022-12-08T13:04:04;4.90;96.00
41924;DHT22;27613;48.116;11.656;2022-12-08T13:06:38;5.00;95.70
41924;DHT22;27613;48.116;11.656;2022-12-08T13:09:05;4.80;96.30
41924;DHT22;27613;48.116;11.656;2022-12-08T13:11:44;5.00;96.50
41924;DHT22;27613;48.116;11.656;2022-12-08T13:16:57;5.40;95.50
41924;DHT22;27613;48.116;11.656;2022-12-08T13:19:23;5.50;95.20
41924;DHT22;27613;48.116;11.656;2022-12-08T13:21:49;5.50;94.80
41924;DHT22;27613;48.116;11.656;2022-12-08T13:29:38;5.20;94.90
41924;DHT22;27613;48.116;11.656;2022-12-08T13:34:57;5.30;94.40
41924;DHT22;27613;48.116;11.656;2022-12-08T13:37:27;5.10;95.20
41924;DHT22;27613;48.116;11.656;2022-12-08T13:40:21;5.40;94.80
41924;DHT22;27613;48.116;11.656;2022-12-08T13:43:29;5.30;94.60
41924;DHT22;27613;48.116;11.656;2022-12-08T13:45:59;5.10;95.10
41924;DHT22;27613;48.116;11.656;2022-12-08T13:48:43;4.90;95.30
41924;DHT22;27613;48.116;11.656;2022-12-08T13:51:17;4.60;95.40
41924;DHT22;27613;48.116;11.656;2022-12-08T13:53:57;4.60;95.30
41924;DHT22;27613;48.116;11.656;2022-12-08T13:56:25;4.30;96.10
41924;DHT22;27613;48.116;11.656;2022-12-08T13:59:22;4.30;96.60
41924;DHT22;27613;48.116;11.656;2022-12-08T14:01:48;4.40;96.30
41924;DHT22;27613;48.116;11.656;2022-12-08T14:04:22;4.40;96.20
41924;DHT22;27613;48.116;11.656;2022-12-08T14:06:54;4.40;96.00
41924;DHT22;27613;48.116;11.656;2022-12-08T14:09:23;4.40;96.20
41924;DHT22;27613;48.116;11.656;2022-12-08T14:11:58;4.40;96.40
41924;DHT22;27613;48.116;11.656;2022-12-08T14:14:42;4.40;96.70
41924;DHT22;27613;48.116;11.656;2022-12-08T14:17:15;4.30;97.10
41924;DHT22;27613;48.116;11.656;2022-12-08T14:20:01;4.10;97.50
41924;DHT22;27613;48.116;11.656;2022-12-08T14:22:34;4.10;97.70
41924;DHT22;27613;48.116;11.656;2022-12-08T14:24:59;4.10;98.00
41924;DHT22;27613;48.116;11.656;2022-12-08T14:27:26;4.00;98.70
41924;DHT22;27613;48.116;11.656;2022-12-08T14:29:59;4.00;99.20
41924;DHT22;27613;48.116;11.656;2022-12-08T14:32:28;4.00;99.00
41924;DHT22;27613;48.116;11.656;2022-12-08T14:37:24;3.80;99.10
41924;DHT22;27613;48.116;11.656;2022-12-08T14:39:51;3.70;99.10
41924;DHT22;27613;48.116;11.656;2022-12-08T14:42:26;3.60;99.40
41924;DHT22;27613;48.116;11.656;2022-12-08T14:45:01;3.60;99.30
41924;DHT22;27613;48.116;11.656;2022-12-08T14:47:30;3.60;99.40
41924;DHT22;27613;48.116;11.656;2022-12-08T14:49:56;3.50;99.70
41924;DHT22;27613;48.116;11.656;2022-12-08T14:52:23;3.50;99.90
41924;DHT22;27613;48.116;11.656;2022-12-08T14:54:50;3.40;99.90
41924;DHT22;27613;48.116;11.656;2022-12-08T14:57:16;3.40;99.90
41924;DHT22;27613;48.116;11.656;2022-12-08T14:59:43;3.40;99.90
41924;DHT22;27613;48.116;11.656;2022-12-08T15:04:46;3.20;99.90
41924;DHT22;27613;48.116;11.656;2022-12-08T15:07:21;3.10;99.90
41924;DHT22;27613;48.116;11.656;2022-12-08T15:09:49;3.00;99.90
41924;DHT22;27613;48.116;11.656;2022-12-08T15:12:30;2.90;99.90
41924;DHT22;27613;48.116;11.656;2022-12-08T15:15:00;2.80;99.90
41924;DHT22;27613;48.116;11.656;2022-12-08T15:20:05;2.70;99.90
41924;DHT22;27613;48.116;11.656;2022-12-08T15:22:32;2.60;99.90
41924;DHT22;27613;48.116;11.656;2022-12-08T15:24:58;2.60;99.90
41924;DHT22;27613;48.116;11.656;2022-12-08T15:27:24;2.50;99.90
41924;DHT22;27613;48.116;11.656;2022-12-08T15:29:50;2.40;99.90
41924;DHT22;27613;48.116;11.656;2022-12-08T15:32:18;2.40;99.90
41924;DHT22;27613;48.116;11.656;2022-12-08T15:34:45;2.30;99.90
41924;DHT22;27613;48.116;11.656;2022-12-08T15:37:24;2.30;99.90
41924;DHT22;27613;48.116;11.656;2022-12-08T15:39:51;2.30;99.90
41924;DHT22;27613;48.116;11.656;2022-12-08T15:42:17;2.20;99.90
41924;DHT22;27613;48.116;11.656;2022-12-08T15:44:42;2.20;99.90
41924;DHT22;27613;48.116;11.656;2022-12-08T15:47:19;2.10;99.90
41924;DHT22;27613;48.116;11.656;2022-12-08T15:49:46;2.10;99.90
41924;DHT22;27613;48.116;11.656;2022-12-08T15:52:19;2.00;99.90
41924;DHT22;27613;48.116;11.656;2022-12-08T15:54:45;1.90;99.90
41924;DHT22;27613;48.116;11.656;2022-12-08T15:57:27;1.80;99.90
41924;DHT22;27613;48.116;11.656;2022-12-08T15:59:54;1.70;99.90
41924;DHT22;27613;48.116;11.656;2022-12-08T16:02:19;1.60;99.90
41924;DHT22;27613;48.116;11.656;2022-12-08T16:04:46;1.60;99.90
41924;DHT22;27613;48.116;11.656;2022-12-08T16:07:26;1.50;99.90
41924;DHT22;27613;48.116;11.656;2022-12-08T16:09:53;1.40;99.90
41924;DHT22;27613;48.116;11.656;2022-12-08T16:12:22;1.40;99.90
41924;DHT22;27613;48.116;11.656;2022-12-08T16:15:06;1.30;99.90
41924;DHT22;27613;48.116;11.656;2022-12-08T16:17:33;1.30;99.90
41924;DHT22;27613;48.116;11.656;2022-12-08T16:19:59;1.20;99.90
41924;DHT22;27613;48.116;11.656;2022-12-08T16:22:28;1.10;99.90
41924;DHT22;27613;48.116;11.656;2022-12-08T16:24:54;1.00;99.90
41924;DHT22;27613;48.116;11.656;2022-12-08T16:27:28;1.00;99.90
41924;DHT22;27613;48.116;11.656;2022-12-08T16:29:56;1.00;99.90
41924;DHT22;27613;48.116;11.656;2022-12-08T16:32:22;0.90;99.90
41924;DHT22;27613;48.116;11.656;2022-12-08T16:34:49;0.90;99.90
41924;DHT22;27613;48.116;11.656;2022-12-08T16:39:42;0.80;99.90
41924;DHT22;27613;48.116;11.656;2022-12-08T16:42:29;0.70;99.90
41924;DHT22;27613;48.116;11.656;2022-12-08T16:45:28;0.60;99.90
41924;DHT22;27613;48.116;11.656;2022-12-08T16:47:59;0.60;99.90
41924;DHT22;27613;48.116;11.656;2022-12-08T16:50:29;0.50;99.90
41924;DHT22;27613;48.116;11.656;2022-12-08T16:53:09;0.50;99.90
41924;DHT22;27613;48.116;11.656;2022-12-08T16:55:35;0.50;99.90
41924;DHT22;27613;48.116;11.656;2022-12-08T16:58:01;0.40;99.90
41924;DHT22;27613;48.116;11.656;2022-12-08T17:00:28;0.50;99.90
41924;DHT22;27613;48.116;11.656;2022-12-08T17:02:54;0.40;99.90
41924;DHT22;27613;48.116;11.656;2022-12-08T17:05:21;0.30;99.90
41924;DHT22;27613;48.116;11.656;2022-12-08T17:07:49;0.20;99.90
41924;DHT22;27613;48.116;11.656;2022-12-08T17:10:17;0.10;99.90
41924;DHT22;27613;48.116;11.656;2022-12-08T17:12:43;0.10;99.90
41924;DHT22;27613;48.116;11.656;2022-12-08T17:15:15;0.20;99.90
41924;DHT22;27613;48.116;11.656;2022-12-08T17:17:42;0.20;99.90
41924;DHT22;27613;48.116;11.656;2022-12-08T17:20:12;0.10;99.90
41924;DHT22;27613;48.116;11.656;2022-12-08T17:22:39;0.00;99.90